createdAt,value
2018-03-22T00:00:01.354Z,3.40
2018-03-22T00:02:36.989Z,3.40
2018-03-22T00:05:11.599Z,3.40
2018-03-22T00:07:46.563Z,3.40
2018-03-22T00:10:20.396Z,3.40
2018-03-22T00:12:54.462Z,3.40
2018-03-22T00:15:28.163Z,3.40
2018-03-22T00:18:02.677Z,3.40
2018-03-22T00:20:36.388Z,3.40
2018-03-22T00:23:12.243Z,3.40
2018-03-22T00:25:47.178Z,3.40
2018-03-22T00:28:21.402Z,3.30
2018-03-22T00:31:00.739Z,3.40
2018-03-22T00:33:36.368Z,3.40
2018-03-22T00:36:13.654Z,3.40
2018-03-22T00:38:48.747Z,3.40
2018-03-22T00:41:24.148Z,3.40
2018-03-22T00:44:00.105Z,3.40
2018-03-22T00:46:38.953Z,3.40
2018-03-22T00:49:14.081Z,3.40
2018-03-22T00:51:48.854Z,3.40
2018-03-22T00:54:23.428Z,3.40
2018-03-22T00:56:59.136Z,3.40
2018-03-22T00:59:32.985Z,3.40
2018-03-22T01:02:08.421Z,3.40
2018-03-22T01:04:45.889Z,3.30
2018-03-22T01:07:21.834Z,3.30
2018-03-22T01:09:56.442Z,3.30
2018-03-22T01:12:31.956Z,3.30
2018-03-22T01:15:07.942Z,3.30
2018-03-22T01:17:43.330Z,3.40
2018-03-22T01:20:17.467Z,3.30
2018-03-22T01:22:52.043Z,3.40
2018-03-22T01:25:27.436Z,3.30
2018-03-22T01:28:02.910Z,3.30
2018-03-22T01:30:53.195Z,3.40
2018-03-22T01:33:28.511Z,3.40
2018-03-22T01:36:15.116Z,3.40
2018-03-22T01:38:52.077Z,3.30
2018-03-22T01:41:28.264Z,3.40
2018-03-22T01:44:02.692Z,3.30
2018-03-22T01:46:38.014Z,3.30
2018-03-22T01:49:11.771Z,3.30
2018-03-22T01:51:46.189Z,3.40
2018-03-22T01:54:20.893Z,3.40
2018-03-22T01:56:55.456Z,3.40
2018-03-22T01:59:30.124Z,3.30
2018-03-22T02:02:04.909Z,3.30
2018-03-22T02:04:42.854Z,3.30
2018-03-22T02:07:19.808Z,3.30
2018-03-22T02:09:53.732Z,3.30
2018-03-22T02:12:29.451Z,3.30
2018-03-22T02:15:04.882Z,3.30
2018-03-22T02:17:44.317Z,3.30
2018-03-22T02:20:19.936Z,3.30
2018-03-22T02:22:53.625Z,3.30
2018-03-22T02:25:28.907Z,3.40
2018-03-22T02:28:04.677Z,3.40
2018-03-22T02:30:39.203Z,3.40
2018-03-22T02:33:13.828Z,3.40
2018-03-22T02:35:48.280Z,3.40
2018-03-22T02:38:23.064Z,3.40
2018-03-22T02:40:58.558Z,3.40
2018-03-22T02:43:43.458Z,3.40
2018-03-22T02:46:20.764Z,3.40
2018-03-22T02:48:57.240Z,3.40
2018-03-22T02:51:31.067Z,3.40
2018-03-22T02:54:05.031Z,3.30
2018-03-22T02:56:40.470Z,3.30
2018-03-22T02:59:14.736Z,3.30
2018-03-22T03:01:49.465Z,3.30
2018-03-22T03:04:27.011Z,3.20
2018-03-22T03:07:02.854Z,3.20
2018-03-22T03:09:39.117Z,3.20
2018-03-22T03:12:16.593Z,3.10
2018-03-22T03:14:52.412Z,3.10
2018-03-22T03:17:28.562Z,3.10
2018-03-22T03:20:03.296Z,3.00
2018-03-22T03:22:38.867Z,2.90
2018-03-22T03:25:16.146Z,2.90
2018-03-22T03:27:51.784Z,2.90
2018-03-22T03:30:26.340Z,2.90
2018-03-22T03:33:02.284Z,2.90
2018-03-22T03:35:36.292Z,2.90
2018-03-22T03:38:13.491Z,2.80
2018-03-22T03:40:48.731Z,2.80
2018-03-22T03:43:25.342Z,2.80
2018-03-22T03:45:59.951Z,2.80
2018-03-22T03:48:35.236Z,2.70
2018-03-22T03:51:10.356Z,2.70
2018-03-22T03:53:45.234Z,2.70
2018-03-22T03:56:21.759Z,2.70
2018-03-22T03:58:56.660Z,2.70
2018-03-22T04:01:32.925Z,2.70
2018-03-22T04:04:07.198Z,2.70
2018-03-22T04:06:42.346Z,2.60
2018-03-22T04:09:18.603Z,2.60
2018-03-22T04:11:56.880Z,2.60
2018-03-22T04:14:31.256Z,2.60
2018-03-22T04:17:05.084Z,2.60
2018-03-22T04:19:38.949Z,2.60
2018-03-22T04:22:12.827Z,2.50
2018-03-22T04:24:48.291Z,2.50
2018-03-22T04:27:22.856Z,2.50
2018-03-22T04:29:58.236Z,2.60
2018-03-22T04:32:33.718Z,2.60
2018-03-22T04:35:07.750Z,2.60
2018-03-22T04:37:46.888Z,2.60
2018-03-22T04:40:22.272Z,2.60
2018-03-22T04:43:01.369Z,2.60
2018-03-22T04:45:37.892Z,2.60
2018-03-22T04:48:12.347Z,2.50
2018-03-22T04:50:47.640Z,2.50
2018-03-22T04:53:22.265Z,2.50
2018-03-22T04:55:57.032Z,2.50
2018-03-22T04:58:31.757Z,2.50
2018-03-22T05:01:05.512Z,2.40
2018-03-22T05:03:39.355Z,2.40
2018-03-22T05:06:14.749Z,2.40
2018-03-22T05:08:48.926Z,2.30
2018-03-22T05:11:22.695Z,2.40
2018-03-22T05:13:58.614Z,2.30
2018-03-22T05:16:33.333Z,2.30
2018-03-22T05:19:07.958Z,2.30
2018-03-22T05:21:43.139Z,2.20
2018-03-22T05:24:17.648Z,2.30
2018-03-22T05:26:51.441Z,2.30
2018-03-22T05:29:26.616Z,2.30
2018-03-22T05:32:03.759Z,2.20
2018-03-22T05:34:37.497Z,2.30
2018-03-22T05:37:16.934Z,2.30
2018-03-22T05:39:51.613Z,2.30
2018-03-22T05:42:27.356Z,2.40
2018-03-22T05:45:05.824Z,2.40
2018-03-22T05:47:40.916Z,2.50
2018-03-22T05:50:17.090Z,2.50
2018-03-22T05:52:52.861Z,2.50
2018-03-22T05:55:27.657Z,2.50
2018-03-22T05:58:11.953Z,2.60
2018-03-22T06:00:56.491Z,2.60
2018-03-22T06:03:40.320Z,2.60
2018-03-22T06:06:15.890Z,2.60
2018-03-22T06:08:50.653Z,2.60
2018-03-22T06:11:28.786Z,2.70
2018-03-22T06:14:04.808Z,2.70
2018-03-22T06:16:41.098Z,2.80
2018-03-22T06:19:14.786Z,2.80
2018-03-22T06:21:49.406Z,2.90
2018-03-22T06:24:26.312Z,2.90
2018-03-22T06:27:01.314Z,2.90
2018-03-22T06:29:36.282Z,2.90
2018-03-22T06:32:11.949Z,3.00
2018-03-22T06:34:46.915Z,3.10
2018-03-22T06:43:19.783Z,3.10
2018-03-22T06:45:53.594Z,3.10
2018-03-22T06:48:29.087Z,3.10
2018-03-22T06:51:04.198Z,3.10
2018-03-22T06:53:41.503Z,3.10
2018-03-22T06:56:18.925Z,3.10
2018-03-22T06:58:53.161Z,3.10
2018-03-22T07:01:28.317Z,3.10
2018-03-22T07:04:06.212Z,3.20
2018-03-22T07:06:41.257Z,3.20
2018-03-22T07:09:20.237Z,3.20
2018-03-22T07:11:54.846Z,3.20
2018-03-22T07:14:29.504Z,3.20
2018-03-22T07:17:05.333Z,3.20
2018-03-22T07:19:40.269Z,3.20
2018-03-22T07:22:15.611Z,3.20
2018-03-22T07:24:49.972Z,3.20
2018-03-22T07:27:24.484Z,3.10
2018-03-22T07:29:59.261Z,3.10
2018-03-22T07:32:33.052Z,3.20
2018-03-22T07:35:07.065Z,3.10
2018-03-22T07:37:40.780Z,3.20
2018-03-22T07:40:15.412Z,3.20
2018-03-22T07:42:56.596Z,3.20
2018-03-22T07:45:31.539Z,3.20
2018-03-22T07:48:07.332Z,3.20
2018-03-22T07:50:43.914Z,3.20
2018-03-22T07:53:22.951Z,3.10
2018-03-22T07:55:57.332Z,3.10
2018-03-22T07:58:38.344Z,3.10
2018-03-22T08:01:13.039Z,3.10
2018-03-22T08:06:27.760Z,3.00
2018-03-22T08:09:01.617Z,3.00
2018-03-22T08:11:37.025Z,3.00
2018-03-22T08:14:12.930Z,2.90
2018-03-22T08:16:48.840Z,2.90
2018-03-22T08:19:27.000Z,2.90
2018-03-22T08:22:03.453Z,2.80
2018-03-22T08:24:37.701Z,2.80
2018-03-22T08:27:12.735Z,2.80
2018-03-22T08:29:47.481Z,2.80
2018-03-22T08:32:22.167Z,2.80
2018-03-22T08:34:56.776Z,2.80
2018-03-22T08:37:35.191Z,2.80
2018-03-22T08:40:09.791Z,2.80
2018-03-22T08:42:45.365Z,2.90
2018-03-22T08:45:21.748Z,2.90
2018-03-22T08:47:56.936Z,3.00
2018-03-22T08:50:30.621Z,3.00
2018-03-22T08:53:04.414Z,3.00
2018-03-22T08:55:39.102Z,3.00
2018-03-22T08:58:14.886Z,3.10
2018-03-22T09:00:51.775Z,3.20
2018-03-22T09:03:26.032Z,3.20
2018-03-22T09:06:00.697Z,3.30
2018-03-22T09:08:34.712Z,3.30
2018-03-22T09:11:08.372Z,3.20
2018-03-22T09:13:42.074Z,3.30
2018-03-22T09:16:15.903Z,3.30
2018-03-22T09:18:50.958Z,3.40
2018-03-22T09:21:25.602Z,3.50
2018-03-22T09:24:01.761Z,3.50
2018-03-22T09:26:42.095Z,3.60
2018-03-22T09:29:16.057Z,3.60
2018-03-22T09:31:49.806Z,3.70
2018-03-22T09:34:28.426Z,3.70
2018-03-22T09:37:03.804Z,3.70
2018-03-22T09:39:38.709Z,3.80
2018-03-22T09:42:12.398Z,3.80
2018-03-22T09:44:46.079Z,3.90
2018-03-22T09:47:19.809Z,3.90
2018-03-22T09:49:54.788Z,3.90
2018-03-22T09:52:29.910Z,4.00
2018-03-22T09:55:05.370Z,4.00
2018-03-22T09:57:40.603Z,4.10
2018-03-22T10:00:14.570Z,4.10
2018-03-22T10:02:48.576Z,4.10
2018-03-22T10:05:26.831Z,4.20
2018-03-22T10:08:03.212Z,4.20
2018-03-22T10:10:38.637Z,4.30
2018-03-22T10:13:17.424Z,4.40
2018-03-22T10:15:56.321Z,4.60
2018-03-22T10:18:31.204Z,4.70
2018-03-22T10:21:04.856Z,4.80
2018-03-22T10:23:38.758Z,4.90
2018-03-22T10:26:12.746Z,4.90
2018-03-22T10:28:46.491Z,4.90
2018-03-22T10:31:20.317Z,4.90
2018-03-22T10:33:54.030Z,4.90
2018-03-22T10:36:29.494Z,4.90
2018-03-22T10:39:07.466Z,4.80
2018-03-22T10:41:41.223Z,4.80
2018-03-22T10:44:16.202Z,4.80
2018-03-22T10:46:50.300Z,4.80
2018-03-22T10:49:24.868Z,4.70
2018-03-22T10:51:58.668Z,4.70
2018-03-22T10:54:32.510Z,4.70
2018-03-22T10:57:06.209Z,4.70
2018-03-22T10:59:40.864Z,4.60
2018-03-22T11:02:20.384Z,4.70
2018-03-22T11:04:55.226Z,4.60
2018-03-22T11:07:33.165Z,4.70
2018-03-22T11:10:07.301Z,4.70
2018-03-22T11:12:44.323Z,4.80
2018-03-22T11:15:19.618Z,4.80
2018-03-22T11:17:53.589Z,4.70
2018-03-22T11:20:28.283Z,4.80
2018-03-22T11:23:02.000Z,4.70
2018-03-22T11:25:36.420Z,4.60
2018-03-22T11:28:10.212Z,4.70
2018-03-22T11:30:43.987Z,4.80
2018-03-22T11:33:18.633Z,5.00
2018-03-22T11:35:54.512Z,5.10
2018-03-22T11:38:28.348Z,5.10
2018-03-22T11:43:46.301Z,5.10
2018-03-22T11:46:19.978Z,5.20
2018-03-22T11:48:53.736Z,5.20
2018-03-22T11:51:27.388Z,5.30
2018-03-22T11:54:01.158Z,5.40
2018-03-22T11:56:38.482Z,5.30
2018-03-22T11:59:13.369Z,5.30
2018-03-22T12:01:50.386Z,5.50
2018-03-22T12:04:25.669Z,5.50
2018-03-22T12:07:02.107Z,5.70
2018-03-22T12:09:35.908Z,5.60
2018-03-22T12:12:09.682Z,5.60
2018-03-22T12:14:44.198Z,5.80
2018-03-22T12:17:17.848Z,5.80
2018-03-22T12:19:52.165Z,5.80
2018-03-22T12:22:26.729Z,5.70
2018-03-22T12:25:00.494Z,5.60
2018-03-22T12:27:34.273Z,5.60
2018-03-22T12:30:08.249Z,5.70
2018-03-22T12:32:42.064Z,5.80
2018-03-22T12:35:16.956Z,5.70
2018-03-22T12:37:50.825Z,5.70
2018-03-22T12:40:29.117Z,5.70
2018-03-22T12:43:03.408Z,5.70
2018-03-22T12:45:39.814Z,5.80
2018-03-22T12:48:13.712Z,5.80
2018-03-22T12:50:48.366Z,5.80
2018-03-22T12:53:23.352Z,5.70
2018-03-22T12:56:02.458Z,5.70
2018-03-22T12:58:37.867Z,5.60
2018-03-22T13:01:12.910Z,5.70
2018-03-22T13:03:47.950Z,5.70
2018-03-22T13:06:21.902Z,5.80
2018-03-22T13:08:55.523Z,5.80
2018-03-22T13:11:29.829Z,5.80
2018-03-22T13:14:05.664Z,5.80
2018-03-22T13:16:40.958Z,5.80
2018-03-22T13:19:15.097Z,5.90
2018-03-22T13:21:49.424Z,5.90
2018-03-22T13:24:23.155Z,5.80
2018-03-22T13:26:56.935Z,5.90
2018-03-22T13:29:30.733Z,5.90
2018-03-22T13:32:05.294Z,5.90
2018-03-22T13:34:41.059Z,5.90
2018-03-22T13:37:19.485Z,5.80
2018-03-22T13:39:54.089Z,5.90
2018-03-22T13:42:28.929Z,5.90
2018-03-22T13:45:02.527Z,6.00
2018-03-22T13:47:36.098Z,6.10
2018-03-22T13:50:09.893Z,6.00
2018-03-22T13:52:44.168Z,6.00
2018-03-22T13:55:18.772Z,6.00
2018-03-22T13:57:53.152Z,6.00
2018-03-22T14:00:27.276Z,6.10
2018-03-22T14:03:01.036Z,6.10
2018-03-22T14:05:35.742Z,6.20
2018-03-22T14:08:09.881Z,6.20
2018-03-22T14:10:43.608Z,6.30
2018-03-22T14:13:17.373Z,6.30
2018-03-22T14:15:51.793Z,6.40
2018-03-22T14:18:26.722Z,6.30
2018-03-22T14:21:01.964Z,6.30
2018-03-22T14:23:36.755Z,6.30
2018-03-22T14:26:12.086Z,6.40
2018-03-22T14:28:45.881Z,6.50
2018-03-22T14:31:19.621Z,6.50
2018-03-22T14:33:53.588Z,6.50
2018-03-22T14:36:30.396Z,6.60
2018-03-22T14:39:04.837Z,6.40
2018-03-22T14:41:38.593Z,6.30
2018-03-22T14:44:12.597Z,6.30
2018-03-22T14:46:47.530Z,6.30
2018-03-22T14:49:22.466Z,6.20
2018-03-22T14:54:39.200Z,6.20
2018-03-22T14:57:14.956Z,6.20
2018-03-22T14:59:49.261Z,6.10
2018-03-22T15:02:23.038Z,6.20
2018-03-22T15:04:57.902Z,6.20
2018-03-22T15:07:33.492Z,6.20
2018-03-22T15:10:07.795Z,6.20
2018-03-22T15:12:42.942Z,6.20
2018-03-22T15:15:16.959Z,6.20
2018-03-22T15:17:50.842Z,6.30
2018-03-22T15:20:25.557Z,6.30
2018-03-22T15:23:00.303Z,6.40
2018-03-22T15:25:35.410Z,6.40
2018-03-22T15:28:14.216Z,6.60
2018-03-22T15:30:53.019Z,6.70
2018-03-22T15:33:28.842Z,6.80
2018-03-22T15:36:03.603Z,6.90
2018-03-22T15:57:03.658Z,7.20
2018-03-22T15:59:37.537Z,7.20
2018-03-22T16:02:11.112Z,7.10
2018-03-22T16:04:44.912Z,7.10
2018-03-22T16:07:19.551Z,7.10
2018-03-22T16:09:54.068Z,7.10
2018-03-22T16:12:27.877Z,7.10
2018-03-22T16:15:02.613Z,7.10
2018-03-22T16:17:37.602Z,7.10
2018-03-22T16:20:11.986Z,7.00
2018-03-22T16:22:47.264Z,7.00
2018-03-22T16:25:21.272Z,7.00
2018-03-22T16:27:55.001Z,7.00
2018-03-22T16:30:29.395Z,7.00
2018-03-22T16:33:04.022Z,7.00
2018-03-22T16:35:40.214Z,7.00
2018-03-22T16:38:15.774Z,7.10
2018-03-22T16:40:49.535Z,7.10
2018-03-22T16:43:24.226Z,7.10
2018-03-22T16:46:00.638Z,7.00
2018-03-22T16:48:35.189Z,7.00
2018-03-22T16:53:47.832Z,6.90
2018-03-22T16:56:21.685Z,6.90
2018-03-22T17:01:37.802Z,6.90
2018-03-22T17:04:13.716Z,6.90
2018-03-22T17:06:48.746Z,6.80
2018-03-22T17:12:10.290Z,6.80
2018-03-22T17:14:52.577Z,6.80
2018-03-22T17:17:26.584Z,6.80
2018-03-22T17:20:00.366Z,6.80
2018-03-22T17:22:36.451Z,6.80
2018-03-22T17:25:12.045Z,6.80
2018-03-22T17:27:46.649Z,6.70
2018-03-22T17:32:59.225Z,6.70
2018-03-22T17:35:33.071Z,6.70
2018-03-22T17:38:12.170Z,6.70
2018-03-22T17:40:50.855Z,6.80
2018-03-22T17:43:26.215Z,6.70
2018-03-22T17:46:00.759Z,6.80
2018-03-22T17:51:12.469Z,6.70
2018-03-22T17:53:46.276Z,6.70
2018-03-22T17:56:23.676Z,6.70
2018-03-22T17:58:58.754Z,6.70
2018-03-22T18:01:35.146Z,6.70
2018-03-22T18:12:35.291Z,6.60
2018-03-22T18:17:53.858Z,6.60
2018-03-22T18:20:30.247Z,6.60
2018-03-22T18:23:06.744Z,6.60
2018-03-22T18:25:41.508Z,6.50
2018-03-22T18:28:16.929Z,6.50
2018-03-22T18:30:54.386Z,6.50
2018-03-22T18:33:39.665Z,6.40
2018-03-22T18:36:15.132Z,6.40
2018-03-22T18:39:04.517Z,6.30
2018-03-22T18:41:44.123Z,6.20
2018-03-22T18:44:18.570Z,6.20
2018-03-22T18:46:53.734Z,6.10
2018-03-22T18:49:28.877Z,6.00
2018-03-22T18:52:02.604Z,6.00
2018-03-22T18:54:36.655Z,5.90
2018-03-22T18:57:13.107Z,5.80
2018-03-22T18:59:46.821Z,5.80
2018-03-22T19:02:21.420Z,5.90
2018-03-22T19:04:55.862Z,5.80
2018-03-22T19:07:29.670Z,5.90
2018-03-22T19:10:03.258Z,5.80
2018-03-22T19:12:38.593Z,5.90
2018-03-22T19:15:13.101Z,5.90
2018-03-22T19:17:46.868Z,5.90
2018-03-22T19:20:21.341Z,5.90
2018-03-22T19:22:56.112Z,5.80
2018-03-22T19:25:30.864Z,5.80
2018-03-22T19:28:05.490Z,5.80
2018-03-22T19:30:42.146Z,5.80
2018-03-22T19:33:15.996Z,5.70
2018-03-22T19:35:49.613Z,5.60
2018-03-22T19:38:24.004Z,5.60
2018-03-22T19:40:57.780Z,5.60
2018-03-22T19:43:32.517Z,5.70
2018-03-22T19:46:06.080Z,5.60
2018-03-22T19:48:40.772Z,5.70
2018-03-22T19:51:15.807Z,5.60
2018-03-22T19:53:50.813Z,5.60
2018-03-22T19:56:25.292Z,5.60
2018-03-22T19:59:02.959Z,5.60
2018-03-22T20:01:37.624Z,5.60
2018-03-22T20:04:11.920Z,5.60
2018-03-22T20:06:45.747Z,5.50
2018-03-22T20:09:24.998Z,5.30
2018-03-22T20:12:00.524Z,5.30
2018-03-22T20:14:34.300Z,5.10
2018-03-22T20:17:08.856Z,5.00
2018-03-22T20:19:43.491Z,5.00
2018-03-22T20:22:19.322Z,5.00
2018-03-22T20:24:54.020Z,4.90
2018-03-22T20:27:28.317Z,4.90
2018-03-22T20:30:02.812Z,4.90
2018-03-22T20:32:36.525Z,4.90
2018-03-22T20:35:11.020Z,4.90
2018-03-22T20:37:44.754Z,4.90
2018-03-22T20:40:19.856Z,5.00
2018-03-22T20:42:53.655Z,5.00
2018-03-22T20:45:30.425Z,5.00
2018-03-22T20:48:04.428Z,5.00
2018-03-22T20:50:39.561Z,5.00
2018-03-22T20:53:13.300Z,4.90
2018-03-22T20:55:47.015Z,4.90
2018-03-22T20:58:20.865Z,4.90
2018-03-22T21:00:54.702Z,4.90
2018-03-22T21:03:29.192Z,5.00
2018-03-22T21:06:04.328Z,5.00
2018-03-22T21:08:38.421Z,5.00
2018-03-22T21:11:12.097Z,4.90
2018-03-22T21:13:46.655Z,4.80
2018-03-22T21:16:23.301Z,4.70
2018-03-22T21:18:58.553Z,4.80
2018-03-22T21:21:34.025Z,4.80
2018-03-22T21:24:10.332Z,4.90
2018-03-22T21:26:45.736Z,4.90
2018-03-22T21:29:20.613Z,4.90
2018-03-22T21:31:56.060Z,4.90
2018-03-22T21:34:30.230Z,5.00
2018-03-22T21:37:06.714Z,4.90
2018-03-22T21:39:42.804Z,4.90
2018-03-22T21:42:16.547Z,4.90
2018-03-22T21:44:50.373Z,4.90
2018-03-22T21:47:30.979Z,4.90
2018-03-22T21:50:04.573Z,5.00
2018-03-22T21:52:46.833Z,5.00
2018-03-22T21:55:20.693Z,5.00
2018-03-22T21:57:54.539Z,4.90
2018-03-22T22:00:29.270Z,5.00
2018-03-22T22:03:03.598Z,4.90
2018-03-22T22:05:38.114Z,4.90
2018-03-22T22:08:12.250Z,4.80
2018-03-22T22:10:46.619Z,4.70
2018-03-22T22:13:21.255Z,4.70
2018-03-22T22:15:54.844Z,4.70
2018-03-22T22:18:28.698Z,4.70
2018-03-22T22:21:03.461Z,4.70
2018-03-22T22:23:38.690Z,4.60
2018-03-22T22:26:12.848Z,4.60
2018-03-22T22:28:48.387Z,4.50
2018-03-22T22:31:22.927Z,4.50
2018-03-22T22:33:57.111Z,4.40
2018-03-22T22:36:30.744Z,4.30
2018-03-22T22:39:05.452Z,4.30
2018-03-22T22:41:39.061Z,4.40
2018-03-22T22:44:12.810Z,4.50
2018-03-22T22:46:47.448Z,4.50
2018-03-22T22:49:21.073Z,4.50
2018-03-22T22:51:55.665Z,4.50
2018-03-22T22:54:29.647Z,4.40
2018-03-22T22:57:04.202Z,4.50
2018-03-22T22:59:37.837Z,4.40
2018-03-22T23:02:12.565Z,4.40
2018-03-22T23:04:46.371Z,4.40
2018-03-22T23:07:20.420Z,4.50
2018-03-22T23:09:55.453Z,4.40
2018-03-22T23:12:29.857Z,4.40
2018-03-22T23:15:05.241Z,4.40
2018-03-22T23:17:39.037Z,4.40
2018-03-22T23:20:12.968Z,4.40
2018-03-22T23:22:47.199Z,4.40
2018-03-22T23:25:21.574Z,4.40
2018-03-22T23:27:55.146Z,4.40
2018-03-22T23:30:29.384Z,4.40
2018-03-22T23:33:04.009Z,4.40
2018-03-22T23:35:38.488Z,4.30
2018-03-22T23:38:13.168Z,4.30
2018-03-22T23:40:46.801Z,4.30
2018-03-22T23:43:20.522Z,4.30
2018-03-22T23:45:54.175Z,4.40
2018-03-22T23:48:28.440Z,4.30
2018-03-22T23:51:03.074Z,4.40
2018-03-22T23:53:36.616Z,4.40
2018-03-22T23:56:10.344Z,4.40
2018-03-22T23:58:46.516Z,4.30
